createdAt,value
2019-01-25T00:00:51.733Z,25.73
2019-01-25T00:07:36.014Z,22.53
2019-01-25T00:14:21.162Z,21.67
2019-01-25T00:21:09.625Z,21.00
2019-01-25T00:27:53.933Z,19.83
2019-01-25T00:34:44.676Z,21.00
2019-01-25T00:41:30.350Z,19.73
2019-01-25T00:48:16.074Z,19.07
2019-01-25T00:55:00.317Z,18.60
2019-01-25T01:01:44.575Z,19.90
2019-01-25T01:08:28.814Z,19.87
2019-01-25T01:15:13.246Z,18.97
2019-01-25T01:21:57.486Z,20.33
2019-01-25T01:28:48.035Z,20.53
2019-01-25T01:35:34.725Z,21.57
2019-01-25T01:42:18.979Z,22.27
2019-01-25T01:49:03.255Z,21.97
2019-01-25T01:55:47.506Z,23.90
2019-01-25T02:02:31.733Z,23.40
2019-01-25T02:09:15.986Z,24.93
2019-01-25T02:16:00.206Z,24.87
2019-01-25T02:22:44.448Z,24.30
2019-01-25T02:29:28.723Z,23.97
2019-01-25T02:36:12.938Z,23.63
2019-01-25T02:42:57.169Z,22.53
2019-01-25T02:49:41.397Z,25.90
2019-01-25T02:56:25.623Z,23.70
2019-01-25T03:03:09.948Z,25.60
2019-01-25T03:09:54.161Z,25.30
2019-01-25T03:16:38.422Z,25.07
2019-01-25T03:23:22.630Z,23.80
2019-01-25T03:30:08.302Z,25.50
2019-01-25T03:36:52.535Z,24.40
2019-01-25T03:43:36.819Z,24.50
2019-01-25T03:50:23.208Z,24.70
2019-01-25T03:57:07.420Z,23.40
2019-01-25T04:03:52.247Z,23.90
2019-01-25T04:10:37.293Z,26.37
2019-01-25T04:17:21.519Z,25.07
2019-01-25T04:24:08.615Z,24.50
2019-01-25T04:30:55.831Z,24.90
2019-01-25T04:37:40.034Z,28.07
2019-01-25T04:44:24.266Z,26.97
2019-01-25T04:51:08.742Z,27.87
2019-01-25T04:57:52.986Z,28.10
2019-01-25T05:04:37.202Z,27.43
2019-01-25T05:11:21.430Z,28.57
2019-01-25T05:18:06.083Z,28.17
2019-01-25T05:24:50.932Z,24.93
2019-01-25T05:31:35.136Z,27.00
2019-01-25T05:38:19.344Z,26.03
2019-01-25T05:45:09.182Z,28.47
2019-01-25T05:51:53.379Z,27.40
2019-01-25T06:52:33.650Z,28.93
2019-01-25T06:59:22.230Z,27.07
2019-01-25T07:06:11.132Z,23.07
2019-01-25T07:12:57.966Z,26.80
2019-01-25T07:19:42.193Z,24.70
2019-01-25T07:26:26.446Z,26.73
2019-01-25T07:33:10.656Z,25.23
2019-01-25T07:39:54.913Z,26.30
2019-01-25T07:46:39.116Z,25.87
2019-01-25T07:53:23.363Z,25.23
2019-01-25T08:00:08.230Z,24.17
2019-01-25T08:06:52.490Z,25.93
2019-01-25T08:13:42.827Z,23.97
2019-01-25T08:20:27.061Z,24.07
2019-01-25T08:27:11.332Z,24.10
2019-01-25T08:33:55.531Z,25.07
2019-01-25T08:40:41.884Z,25.17
2019-01-25T08:47:24.001Z,23.63
2019-01-25T08:54:08.188Z,24.00
2019-01-25T09:00:52.394Z,24.07
2019-01-25T09:07:36.634Z,21.77
2019-01-25T09:14:20.845Z,24.57
2019-01-25T09:21:05.098Z,24.37
2019-01-25T09:27:49.314Z,22.10
2019-01-25T09:34:33.509Z,23.93
2019-01-25T09:41:17.736Z,23.23
2019-01-25T09:48:01.941Z,25.47
2019-01-25T09:54:46.189Z,23.93
2019-01-25T10:01:31.960Z,23.93
2019-01-25T10:08:16.162Z,25.23
2019-01-25T10:15:00.385Z,23.27
2019-01-25T10:21:47.409Z,22.40
2019-01-25T10:28:32.737Z,22.07
2019-01-25T10:35:17.548Z,22.30
2019-01-25T10:42:02.338Z,23.67
2019-01-25T10:48:46.546Z,22.50
2019-01-25T10:55:30.774Z,23.93
2019-01-25T11:02:14.985Z,22.20
2019-01-25T11:08:59.218Z,20.60
2019-01-25T11:15:43.447Z,15.63
2019-01-25T11:22:27.742Z,14.80
2019-01-25T11:29:11.906Z,16.10
2019-01-25T11:35:56.890Z,15.03
2019-01-25T11:42:41.581Z,17.10
2019-01-25T11:49:25.789Z,17.33
2019-01-25T11:56:10.142Z,15.80
2019-01-25T12:17:33.801Z,14.30
2019-01-25T12:24:18.022Z,14.27
2019-01-25T12:31:03.313Z,13.90
2019-01-25T12:37:48.401Z,13.07
2019-01-25T12:44:32.629Z,16.67
2019-01-25T12:51:23.138Z,15.13
2019-01-25T12:58:07.421Z,15.67
2019-01-25T13:04:51.621Z,17.33
2019-01-25T13:11:35.837Z,16.80
2019-01-25T13:18:20.101Z,19.27
2019-01-25T13:25:04.482Z,16.87
2019-01-25T13:31:48.743Z,18.67
2019-01-25T13:38:32.993Z,16.87
2019-01-25T13:45:18.041Z,15.73
2019-01-25T13:52:03.477Z,15.53
2019-01-25T14:15:06.058Z,16.80
2019-01-25T14:21:50.380Z,15.73
2019-01-25T14:28:34.629Z,17.53
2019-01-25T14:35:38.084Z,16.03
2019-01-25T14:42:22.338Z,17.50
2019-01-25T14:49:07.146Z,14.73
2019-01-25T14:56:07.311Z,14.70
2019-01-25T15:02:51.568Z,16.13
2019-01-25T15:09:36.085Z,16.07
2019-01-25T15:16:20.399Z,15.93
2019-01-25T15:23:05.594Z,14.67
2019-01-25T15:29:49.801Z,15.73
2019-01-25T15:36:34.451Z,15.43
2019-01-25T15:43:18.678Z,15.67
2019-01-25T15:50:03.016Z,13.40
2019-01-25T15:56:48.271Z,12.93
2019-01-25T16:03:32.506Z,8.60
2019-01-25T16:10:17.762Z,9.27
2019-01-25T16:17:01.982Z,7.90
2019-01-25T16:23:46.221Z,8.23
2019-01-25T16:30:34.337Z,6.80
2019-01-25T16:37:18.594Z,6.60
2019-01-25T16:44:02.844Z,7.70
2019-01-25T16:50:47.133Z,7.97
2019-01-25T16:57:31.354Z,7.37
2019-01-25T17:04:15.590Z,7.83
2019-01-25T17:10:59.834Z,17.37
2019-01-25T17:18:10.534Z,12.27
2019-01-25T17:32:00.951Z,15.03
2019-01-25T17:38:45.397Z,14.70
2019-01-25T17:45:29.659Z,13.43
2019-01-25T17:52:13.930Z,13.20
2019-01-25T17:59:00.321Z,13.10
2019-01-25T18:05:44.673Z,11.77
2019-01-25T18:12:28.943Z,13.97
2019-01-25T18:19:13.669Z,11.97
2019-01-25T18:26:06.457Z,10.07
2019-01-25T18:32:50.790Z,10.87
2019-01-25T18:39:35.929Z,10.57
2019-01-25T18:46:24.302Z,9.93
2019-01-25T18:53:08.533Z,9.40
2019-01-25T18:59:52.875Z,9.40
2019-01-25T19:06:37.195Z,9.50
2019-01-25T19:13:24.956Z,8.07
2019-01-25T19:20:11.067Z,7.63
2019-01-25T19:27:28.069Z,8.27
2019-01-25T19:34:20.460Z,6.97
2019-01-25T19:41:06.553Z,7.37
2019-01-25T19:48:07.650Z,8.00
2019-01-25T19:55:00.246Z,7.10
2019-01-25T20:09:24.062Z,7.80
2019-01-25T20:16:13.058Z,8.43
2019-01-25T20:23:04.445Z,7.63
2019-01-25T20:29:50.025Z,8.20
2019-01-25T20:36:35.593Z,8.27
2019-01-25T20:43:21.007Z,7.70
2019-01-25T20:50:08.914Z,6.77
2019-01-25T20:57:07.135Z,6.70
2019-01-25T21:03:51.343Z,6.60
2019-01-25T21:10:35.599Z,7.37
2019-01-25T21:17:19.841Z,6.67
2019-01-25T21:24:04.225Z,6.70
2019-01-25T21:30:48.484Z,6.60
2019-01-25T21:37:32.758Z,7.00
2019-01-25T21:44:16.969Z,5.23
2019-01-25T21:51:01.214Z,6.57
2019-01-25T21:57:45.501Z,5.50
2019-01-25T22:04:29.743Z,5.60
2019-01-25T22:11:14.057Z,5.60
2019-01-25T22:17:58.349Z,5.47
2019-01-25T22:24:43.110Z,6.93
2019-01-25T22:31:27.872Z,5.80
2019-01-25T22:38:12.321Z,6.53
2019-01-25T22:44:56.565Z,5.97
2019-01-25T22:51:40.995Z,5.97
2019-01-25T22:58:25.218Z,6.43
2019-01-25T23:05:24.846Z,6.20
2019-01-25T23:12:28.193Z,6.27
2019-01-25T23:19:13.370Z,6.33
2019-01-25T23:25:58.024Z,6.33
2019-01-25T23:32:56.442Z,6.10
2019-01-25T23:39:42.577Z,6.07
2019-01-25T23:46:28.814Z,6.53
2019-01-25T23:53:13.217Z,6.57
2019-01-25T23:59:57.791Z,6.20
